createdAt,value
2023-06-29T00:01:04.904Z,9.40
2023-06-29T00:03:53.621Z,9.52
2023-06-29T00:06:21.339Z,10.15
2023-06-29T00:08:49.162Z,10.27
2023-06-29T00:11:17.245Z,10.48
2023-06-29T00:13:44.684Z,11.43
2023-06-29T00:16:12.358Z,10.88
2023-06-29T00:18:39.838Z,11.43
2023-06-29T00:21:07.521Z,11.68
2023-06-29T00:23:35.576Z,12.98
2023-06-29T00:26:03.561Z,12.23
2023-06-29T00:28:31.009Z,12.25
2023-06-29T00:30:58.790Z,12.02
2023-06-29T00:33:26.245Z,11.18
2023-06-29T00:35:53.859Z,11.02
2023-06-29T00:38:21.228Z,10.55
2023-06-29T00:40:49.873Z,11.15
2023-06-29T00:43:19.078Z,11.20
2023-06-29T00:45:46.730Z,11.23
2023-06-29T00:48:14.408Z,10.68
2023-06-29T00:50:42.516Z,11.38
2023-06-29T00:53:10.147Z,10.68
2023-06-29T00:55:38.171Z,10.70
2023-06-29T00:58:05.584Z,12.10
2023-06-29T01:00:35.018Z,10.25
2023-06-29T01:03:02.513Z,10.88
2023-06-29T01:05:34.247Z,9.68
2023-06-29T01:08:15.121Z,10.38
2023-06-29T01:10:44.068Z,10.48
2023-06-29T01:13:12.126Z,10.43
2023-06-29T01:15:41.030Z,10.23
2023-06-29T01:18:09.167Z,10.02
2023-06-29T01:20:37.403Z,9.20
2023-06-29T01:23:09.180Z,9.20
2023-06-29T01:25:37.252Z,8.40
2023-06-29T01:28:08.717Z,9.30
2023-06-29T01:30:49.829Z,9.02
2023-06-29T01:33:18.326Z,10.05
2023-06-29T01:35:46.328Z,8.40
2023-06-29T01:38:36.915Z,9.77
2023-06-29T01:41:07.376Z,9.00
2023-06-29T01:43:35.320Z,9.75
2023-06-29T01:46:03.985Z,9.43
2023-06-29T01:48:32.000Z,9.10
2023-06-29T01:50:59.823Z,8.77
2023-06-29T01:53:27.251Z,9.07
2023-06-29T01:55:54.841Z,8.05
2023-06-29T01:58:22.333Z,9.00
2023-06-29T02:00:50.323Z,8.63
2023-06-29T02:03:17.795Z,8.07
2023-06-29T02:05:45.613Z,8.45
2023-06-29T02:08:13.311Z,7.63
2023-06-29T02:10:41.056Z,8.40
2023-06-29T02:13:08.760Z,8.80
2023-06-29T02:15:36.352Z,8.93
2023-06-29T02:18:03.745Z,7.90
2023-06-29T02:20:31.391Z,8.32
2023-06-29T02:22:58.747Z,8.07
2023-06-29T02:25:26.331Z,8.68
2023-06-29T02:27:53.786Z,8.48
2023-06-29T02:30:21.391Z,8.63
2023-06-29T02:32:48.862Z,8.93
2023-06-29T02:35:16.666Z,9.38
2023-06-29T02:37:44.478Z,9.43
2023-06-29T02:40:12.474Z,9.23
2023-06-29T02:42:39.889Z,9.65
2023-06-29T02:45:07.891Z,10.30
2023-06-29T02:47:35.358Z,9.88
2023-06-29T02:50:03.146Z,9.07
2023-06-29T02:52:30.552Z,9.50
2023-06-29T02:54:58.140Z,9.80
2023-06-29T02:57:25.540Z,9.48
2023-06-29T02:59:53.156Z,9.13
2023-06-29T03:02:20.583Z,9.07
2023-06-29T03:04:48.228Z,9.07
2023-06-29T03:07:15.613Z,9.52
2023-06-29T03:09:43.360Z,9.10
2023-06-29T03:12:10.957Z,9.30
2023-06-29T03:14:38.586Z,9.88
2023-06-29T03:17:06.712Z,9.38
2023-06-29T03:19:34.454Z,8.77
2023-06-29T03:22:01.822Z,8.95
2023-06-29T03:24:29.526Z,8.88
2023-06-29T03:26:56.891Z,9.77
2023-06-29T03:29:24.606Z,8.98
2023-06-29T03:31:52.039Z,9.13
2023-06-29T03:34:19.700Z,9.60
2023-06-29T03:36:47.080Z,8.02
2023-06-29T03:39:14.683Z,8.63
2023-06-29T03:41:42.001Z,8.50
2023-06-29T03:44:09.663Z,8.25
2023-06-29T03:46:37.036Z,8.98
2023-06-29T03:49:05.179Z,7.90
2023-06-29T03:51:32.599Z,8.18
2023-06-29T03:54:00.271Z,7.40
2023-06-29T03:56:27.643Z,7.93
2023-06-29T03:58:55.252Z,7.10
2023-06-29T04:01:22.831Z,6.97
2023-06-29T04:03:50.552Z,7.20
2023-06-29T04:06:17.893Z,7.45
2023-06-29T04:08:45.720Z,7.03
2023-06-29T04:11:13.410Z,6.68
2023-06-29T04:13:41.385Z,6.13
2023-06-29T04:16:08.844Z,7.20
2023-06-29T04:18:36.876Z,5.97
2023-06-29T04:21:04.445Z,6.75
2023-06-29T04:23:32.182Z,5.65
2023-06-29T04:26:04.046Z,6.20
2023-06-29T04:28:34.565Z,5.90
2023-06-29T04:31:01.995Z,5.82
2023-06-29T04:33:30.154Z,5.10
2023-06-29T04:35:57.490Z,5.82
2023-06-29T04:38:27.777Z,5.60
2023-06-29T04:41:04.573Z,5.78
2023-06-29T04:43:32.912Z,4.85
2023-06-29T04:46:05.339Z,4.78
2023-06-29T04:48:39.553Z,4.72
2023-06-29T04:51:07.260Z,4.60
2023-06-29T04:53:35.653Z,4.18
2023-06-29T04:56:03.193Z,4.15
2023-06-29T04:58:31.054Z,3.92
2023-06-29T05:00:58.690Z,3.83
2023-06-29T05:03:26.728Z,4.13
2023-06-29T05:05:54.213Z,4.20
2023-06-29T05:08:21.855Z,3.72
2023-06-29T05:10:49.236Z,4.13
2023-06-29T05:13:16.856Z,3.38
2023-06-29T05:15:48.782Z,3.50
2023-06-29T05:18:16.994Z,3.72
2023-06-29T05:20:44.425Z,4.15
2023-06-29T05:23:12.732Z,3.65
2023-06-29T05:25:42.232Z,3.28
2023-06-29T05:28:10.323Z,3.50
2023-06-29T05:30:37.747Z,3.65
2023-06-29T05:33:06.056Z,3.40
2023-06-29T05:35:35.569Z,3.05
2023-06-29T05:38:03.439Z,3.00
2023-06-29T05:40:31.070Z,3.55
2023-06-29T05:42:58.992Z,3.72
2023-06-29T05:45:26.325Z,3.17
2023-06-29T05:47:56.097Z,3.30
2023-06-29T05:50:23.510Z,3.22
2023-06-29T05:52:51.543Z,3.83
2023-06-29T05:55:20.627Z,3.80
2023-06-29T05:57:49.074Z,3.47
2023-06-29T06:00:16.883Z,3.33
2023-06-29T06:02:44.748Z,3.30
2023-06-29T06:05:12.609Z,3.20
2023-06-29T06:07:40.538Z,3.20
2023-06-29T06:10:08.240Z,3.00
2023-06-29T06:12:35.887Z,3.25
2023-06-29T06:15:03.337Z,2.90
2023-06-29T06:17:31.304Z,3.60
2023-06-29T06:19:58.702Z,3.30
2023-06-29T06:22:26.356Z,3.47
2023-06-29T06:24:53.696Z,3.83
2023-06-29T06:27:21.392Z,3.58
2023-06-29T06:29:48.811Z,3.17
2023-06-29T06:32:16.484Z,2.58
2023-06-29T06:34:45.119Z,3.17
2023-06-29T06:37:12.807Z,3.15
2023-06-29T06:39:40.160Z,3.33
2023-06-29T06:42:07.644Z,3.20
2023-06-29T06:44:37.722Z,3.28
2023-06-29T06:47:05.391Z,2.53
2023-06-29T06:49:33.096Z,2.92
2023-06-29T06:52:03.291Z,2.67
2023-06-29T06:54:30.967Z,3.38
2023-06-29T06:56:58.330Z,3.22
2023-06-29T06:59:25.984Z,3.28
2023-06-29T07:01:53.451Z,2.83
2023-06-29T07:04:21.120Z,2.95
2023-06-29T07:06:48.487Z,2.97
2023-06-29T07:09:17.299Z,3.17
2023-06-29T07:11:44.599Z,3.08
2023-06-29T07:14:12.379Z,3.17
2023-06-29T07:16:39.837Z,3.17
2023-06-29T07:21:43.167Z,2.80
2023-06-29T07:24:11.430Z,2.90
2023-06-29T07:26:39.329Z,2.72
2023-06-29T07:29:07.406Z,2.90
2023-06-29T07:31:34.887Z,2.63
2023-06-29T07:34:02.647Z,2.60
2023-06-29T07:36:30.472Z,3.63
2023-06-29T07:38:58.323Z,2.88
2023-06-29T07:41:25.972Z,2.60
2023-06-29T07:43:57.105Z,3.10
2023-06-29T07:46:24.781Z,2.65
2023-06-29T07:48:54.586Z,2.38
2023-06-29T07:51:22.919Z,2.75
2023-06-29T07:53:51.545Z,2.10
2023-06-29T07:56:19.916Z,2.50
2023-06-29T07:58:47.909Z,2.50
2023-06-29T08:01:15.388Z,2.47
2023-06-29T08:04:01.469Z,2.55
2023-06-29T08:09:04.616Z,2.00
2023-06-29T08:11:32.080Z,2.17
2023-06-29T08:13:59.759Z,2.10
2023-06-29T08:16:27.319Z,2.00
2023-06-29T08:18:55.063Z,2.53
2023-06-29T08:21:22.428Z,2.30
2023-06-29T08:23:51.846Z,1.70
2023-06-29T08:26:19.608Z,2.08
2023-06-29T08:28:47.375Z,1.60
2023-06-29T08:31:15.637Z,1.88
2023-06-29T08:33:44.116Z,2.03
2023-06-29T08:36:11.538Z,2.17
2023-06-29T08:38:39.199Z,2.42
2023-06-29T08:41:07.132Z,2.40
2023-06-29T08:43:34.860Z,2.20
2023-06-29T08:46:04.156Z,2.00
2023-06-29T08:48:33.373Z,2.30
2023-06-29T08:51:11.507Z,2.38
2023-06-29T08:53:41.651Z,2.30
2023-06-29T08:56:09.264Z,2.40
2023-06-29T08:58:37.290Z,2.10
2023-06-29T09:01:04.870Z,1.90
2023-06-29T09:03:34.187Z,2.40
2023-06-29T09:06:01.961Z,2.30
2023-06-29T09:08:29.811Z,2.35
2023-06-29T09:10:57.524Z,2.05
2023-06-29T09:13:27.827Z,2.17
2023-06-29T09:15:56.039Z,2.25
2023-06-29T09:18:24.897Z,2.33
2023-06-29T09:20:56.235Z,3.28
2023-06-29T09:23:24.989Z,3.00
2023-06-29T09:25:55.041Z,3.25
2023-06-29T09:28:22.772Z,2.40
2023-06-29T09:30:52.968Z,2.40
2023-06-29T09:33:22.576Z,2.25
2023-06-29T09:35:52.538Z,2.97
2023-06-29T09:38:21.521Z,2.40
2023-06-29T09:40:49.019Z,2.85
2023-06-29T09:43:18.173Z,2.53
2023-06-29T09:45:45.662Z,2.00
2023-06-29T09:50:54.306Z,3.50
2023-06-29T09:53:34.994Z,2.40
2023-06-29T09:56:03.970Z,2.20
2023-06-29T09:58:32.218Z,2.58
2023-06-29T10:01:01.685Z,2.20
2023-06-29T10:03:32.522Z,3.75
2023-06-29T10:06:03.031Z,2.35
2023-06-29T10:08:33.926Z,2.40
2023-06-29T10:11:03.707Z,2.60
2023-06-29T10:13:33.085Z,2.40
2023-06-29T10:16:01.307Z,2.30
2023-06-29T10:18:31.694Z,2.47
2023-06-29T10:20:59.307Z,2.50
2023-06-29T10:23:27.339Z,2.55
2023-06-29T10:25:54.942Z,2.65
2023-06-29T10:28:22.951Z,2.78
2023-06-29T10:30:52.306Z,2.42
2023-06-29T10:33:24.029Z,3.05
2023-06-29T10:35:54.586Z,2.70
2023-06-29T10:38:22.205Z,2.30
2023-06-29T10:40:50.151Z,2.95
2023-06-29T10:43:18.111Z,2.60
2023-06-29T10:45:45.441Z,2.90
2023-06-29T10:48:25.457Z,2.83
2023-06-29T10:50:58.993Z,2.60
2023-06-29T10:53:30.031Z,2.65
2023-06-29T10:55:58.351Z,2.65
2023-06-29T10:58:26.892Z,2.80
2023-06-29T11:00:55.523Z,2.78
2023-06-29T11:03:23.992Z,2.63
2023-06-29T11:05:52.173Z,2.88
2023-06-29T11:08:21.613Z,2.30
2023-06-29T11:10:49.080Z,2.75
2023-06-29T11:13:19.125Z,2.83
2023-06-29T11:15:53.185Z,2.70
2023-06-29T11:18:21.122Z,2.13
2023-06-29T11:20:48.509Z,2.08
2023-06-29T11:23:17.944Z,3.38
2023-06-29T11:25:45.362Z,2.15
2023-06-29T11:28:16.144Z,2.38
2023-06-29T11:30:43.886Z,2.85
2023-06-29T11:36:00.492Z,2.58
2023-06-29T11:38:28.320Z,2.67
2023-06-29T11:41:08.168Z,2.75
2023-06-29T11:43:36.405Z,2.70
2023-06-29T11:46:04.504Z,2.55
2023-06-29T11:48:32.229Z,2.55
2023-06-29T11:51:01.113Z,2.58
2023-06-29T11:53:29.510Z,2.85
2023-06-29T11:55:57.704Z,2.95
2023-06-29T11:58:34.104Z,2.72
2023-06-29T12:01:01.682Z,3.17
2023-06-29T12:03:29.528Z,2.60
2023-06-29T12:05:59.918Z,2.97
2023-06-29T12:08:29.946Z,2.80
2023-06-29T12:10:57.596Z,2.63
2023-06-29T12:13:25.256Z,2.63
2023-06-29T12:18:25.015Z,2.92
2023-06-29T12:20:52.776Z,2.67
2023-06-29T12:23:20.596Z,2.25
2023-06-29T12:25:49.099Z,2.55
2023-06-29T12:28:17.304Z,2.50
2023-06-29T12:30:45.480Z,2.83
2023-06-29T12:33:13.869Z,3.00
2023-06-29T12:35:41.264Z,2.17
2023-06-29T12:38:08.938Z,2.17
2023-06-29T12:40:36.376Z,2.60
2023-06-29T12:43:04.423Z,2.53
2023-06-29T12:45:31.897Z,2.53
2023-06-29T12:47:59.619Z,2.30
2023-06-29T12:50:27.073Z,2.30
2023-06-29T12:52:54.765Z,2.78
2023-06-29T12:55:22.196Z,2.80
2023-06-29T12:57:49.873Z,2.55
2023-06-29T13:00:20.943Z,2.22
2023-06-29T13:02:48.875Z,2.50
2023-06-29T13:05:16.535Z,2.47
2023-06-29T13:07:44.526Z,2.45
2023-06-29T13:10:14.875Z,2.20
2023-06-29T13:12:42.985Z,2.25
2023-06-29T13:15:10.589Z,2.40
2023-06-29T13:17:38.206Z,3.47
2023-06-29T13:20:06.239Z,2.80
2023-06-29T13:22:35.381Z,2.20
2023-06-29T13:25:03.385Z,2.15
2023-06-29T13:27:31.168Z,2.58
2023-06-29T13:29:58.560Z,3.05
2023-06-29T13:32:26.221Z,2.40
2023-06-29T13:34:53.571Z,2.42
2023-06-29T13:37:23.225Z,2.20
2023-06-29T13:39:50.999Z,2.70
2023-06-29T13:42:18.643Z,2.67
2023-06-29T13:44:46.528Z,2.40
2023-06-29T13:47:21.097Z,2.30
2023-06-29T13:49:49.214Z,2.22
2023-06-29T13:52:16.967Z,2.10
2023-06-29T13:54:44.701Z,2.40
2023-06-29T13:57:12.336Z,2.47
2023-06-29T13:59:39.799Z,2.00
2023-06-29T14:02:08.112Z,2.40
2023-06-29T14:04:35.682Z,2.65
2023-06-29T14:07:03.533Z,2.20
2023-06-29T14:09:31.273Z,1.92
2023-06-29T14:11:59.834Z,2.83
2023-06-29T14:14:27.335Z,2.28
2023-06-29T14:16:54.998Z,2.20
2023-06-29T14:19:22.426Z,2.33
2023-06-29T14:21:50.037Z,2.70
2023-06-29T14:24:17.385Z,2.50
2023-06-29T14:26:45.309Z,2.13
2023-06-29T14:29:12.768Z,2.55
2023-06-29T14:31:40.491Z,2.33
2023-06-29T14:34:08.057Z,2.40
2023-06-29T14:36:35.788Z,2.70
2023-06-29T14:39:03.205Z,2.45
2023-06-29T14:41:30.907Z,3.03
2023-06-29T14:43:58.298Z,2.50
2023-06-29T14:46:25.968Z,2.40
2023-06-29T14:48:53.390Z,2.65
2023-06-29T14:51:21.258Z,2.70
2023-06-29T14:53:48.660Z,2.60
2023-06-29T14:56:16.289Z,3.28
2023-06-29T14:58:43.900Z,2.45
2023-06-29T15:01:11.696Z,2.60
2023-06-29T15:03:39.841Z,2.47
2023-06-29T15:06:07.784Z,2.53
2023-06-29T15:08:35.138Z,2.58
2023-06-29T15:11:02.724Z,2.70
2023-06-29T15:13:30.088Z,2.53
2023-06-29T15:15:59.307Z,2.40
2023-06-29T15:18:26.796Z,2.45
2023-06-29T15:20:54.560Z,2.40
2023-06-29T15:23:22.037Z,2.53
2023-06-29T15:25:50.030Z,2.60
2023-06-29T15:28:17.511Z,2.42
2023-06-29T15:30:53.310Z,2.50
2023-06-29T15:33:21.183Z,2.60
2023-06-29T15:35:49.586Z,2.60
2023-06-29T15:38:18.580Z,2.58
2023-06-29T15:40:48.864Z,2.50
2023-06-29T15:43:16.312Z,2.30
2023-06-29T15:45:44.129Z,2.40
2023-06-29T15:48:11.865Z,2.60
2023-06-29T15:50:39.600Z,2.63
2023-06-29T15:53:07.056Z,2.45
2023-06-29T15:55:34.742Z,3.03
2023-06-29T15:58:02.074Z,2.97
2023-06-29T16:00:30.469Z,2.42
2023-06-29T16:02:58.080Z,2.75
2023-06-29T16:05:25.854Z,2.40
2023-06-29T16:07:54.162Z,2.28
2023-06-29T16:10:21.876Z,2.58
2023-06-29T16:12:49.404Z,2.60
2023-06-29T16:15:18.206Z,2.30
2023-06-29T16:17:45.721Z,2.90
2023-06-29T16:20:13.461Z,3.08
2023-06-29T16:22:40.904Z,2.70
2023-06-29T16:25:08.836Z,2.47
2023-06-29T16:27:36.366Z,2.65
2023-06-29T16:30:04.615Z,2.70
2023-06-29T16:32:32.159Z,2.50
2023-06-29T16:34:59.900Z,2.53
2023-06-29T16:37:27.422Z,2.38
2023-06-29T16:39:55.162Z,2.30
2023-06-29T16:42:22.628Z,2.40
2023-06-29T16:44:50.284Z,2.53
2023-06-29T16:47:17.683Z,2.47
2023-06-29T16:49:45.471Z,2.70
2023-06-29T16:52:13.068Z,2.90
2023-06-29T16:54:40.751Z,2.53
2023-06-29T16:57:08.191Z,2.45
2023-06-29T16:59:37.472Z,2.53
2023-06-29T17:02:06.695Z,2.40
2023-06-29T17:04:34.852Z,2.60
2023-06-29T17:07:02.250Z,10.20
2023-06-29T17:09:29.908Z,10.15
2023-06-29T17:11:57.329Z,9.15
2023-06-29T17:14:25.020Z,8.20
2023-06-29T17:16:54.082Z,3.53
2023-06-29T17:19:21.945Z,3.00
2023-06-29T17:21:49.266Z,2.78
2023-06-29T17:24:16.925Z,2.63
2023-06-29T17:26:44.269Z,3.03
2023-06-29T17:29:11.909Z,2.65
2023-06-29T17:31:39.258Z,2.30
2023-06-29T17:34:06.991Z,2.40
2023-06-29T17:36:35.657Z,3.38
2023-06-29T17:39:03.596Z,3.40
2023-06-29T17:41:31.019Z,2.45
2023-06-29T17:43:58.723Z,2.50
2023-06-29T17:46:26.103Z,2.42
2023-06-29T17:48:53.753Z,2.70
2023-06-29T17:51:21.202Z,2.80
2023-06-29T17:53:48.857Z,2.95
2023-06-29T17:56:16.716Z,2.30
2023-06-29T17:58:45.036Z,2.60
2023-06-29T18:01:12.425Z,2.13
2023-06-29T18:03:40.741Z,2.10
2023-06-29T18:06:08.484Z,2.40
2023-06-29T18:08:36.383Z,2.83
2023-06-29T18:11:04.189Z,2.65
2023-06-29T18:13:31.845Z,1.98
2023-06-29T18:15:59.344Z,2.15
2023-06-29T18:18:27.119Z,2.90
2023-06-29T18:20:54.645Z,2.25
2023-06-29T18:23:22.321Z,2.50
2023-06-29T18:25:49.680Z,2.22
2023-06-29T18:28:17.586Z,2.70
2023-06-29T18:30:45.085Z,2.97
2023-06-29T18:33:12.888Z,3.25
2023-06-29T18:35:40.350Z,2.80
2023-06-29T18:38:08.016Z,2.50
2023-06-29T18:40:35.660Z,2.40
2023-06-29T18:43:03.244Z,2.30
2023-06-29T18:45:31.664Z,2.38
2023-06-29T18:47:59.500Z,2.40
2023-06-29T18:50:26.926Z,2.10
2023-06-29T18:52:58.355Z,2.67
2023-06-29T18:55:26.847Z,2.50
2023-06-29T18:57:54.607Z,1.98
2023-06-29T19:00:22.082Z,2.70
2023-06-29T19:02:50.001Z,2.40
2023-06-29T19:05:19.957Z,2.30
2023-06-29T19:07:48.113Z,2.50
2023-06-29T19:10:15.596Z,2.13
2023-06-29T19:12:43.255Z,2.22
2023-06-29T19:15:10.886Z,5.30
2023-06-29T19:17:39.207Z,20.75
2023-06-29T19:20:06.989Z,20.10
2023-06-29T19:22:34.623Z,9.55
2023-06-29T19:25:01.988Z,4.90
2023-06-29T19:27:29.649Z,3.53
2023-06-29T19:29:57.016Z,3.83
2023-06-29T19:32:24.716Z,4.32
2023-06-29T19:34:52.166Z,3.40
2023-06-29T19:37:19.860Z,3.25
2023-06-29T19:39:47.646Z,2.55
2023-06-29T19:42:15.252Z,3.88
2023-06-29T19:44:42.619Z,3.05
2023-06-29T19:47:10.262Z,2.50
2023-06-29T19:49:37.617Z,3.05
2023-06-29T19:52:06.994Z,2.63
2023-06-29T19:54:34.365Z,3.22
2023-06-29T19:57:01.951Z,2.95
2023-06-29T19:59:29.472Z,2.70
2023-06-29T20:01:58.212Z,4.13
2023-06-29T20:04:25.656Z,3.38
2023-06-29T20:06:53.378Z,3.00
2023-06-29T20:09:20.917Z,3.22
2023-06-29T20:11:48.560Z,3.05
2023-06-29T20:14:15.948Z,3.20
2023-06-29T20:16:43.756Z,2.83
2023-06-29T20:19:11.179Z,3.63
2023-06-29T20:21:38.840Z,2.80
2023-06-29T20:24:06.295Z,3.10
2023-06-29T20:26:34.339Z,3.20
2023-06-29T20:29:01.689Z,3.90
2023-06-29T20:31:29.543Z,6.03
2023-06-29T20:33:56.925Z,4.03
2023-06-29T20:36:24.593Z,3.63
2023-06-29T20:38:51.904Z,3.40
2023-06-29T20:41:19.627Z,3.40
2023-06-29T20:43:47.515Z,3.33
2023-06-29T20:46:19.473Z,3.45
2023-06-29T20:48:48.241Z,3.50
2023-06-29T20:51:18.042Z,2.67
2023-06-29T20:53:46.316Z,3.35
2023-06-29T20:56:14.080Z,3.60
2023-06-29T20:58:41.515Z,3.40
2023-06-29T21:01:09.392Z,3.35
2023-06-29T21:03:38.870Z,3.67
2023-06-29T21:06:06.554Z,3.38
2023-06-29T21:08:33.886Z,3.70
2023-06-29T21:11:01.695Z,3.30
2023-06-29T21:13:29.250Z,3.65
2023-06-29T21:15:56.975Z,3.33
2023-06-29T21:18:24.541Z,3.92
2023-06-29T21:20:52.352Z,3.15
2023-06-29T21:23:19.818Z,3.60
2023-06-29T21:25:47.707Z,3.17
2023-06-29T21:28:16.004Z,3.45
2023-06-29T21:30:43.735Z,3.17
2023-06-29T21:33:11.266Z,3.38
2023-06-29T21:35:39.099Z,3.22
2023-06-29T21:38:06.644Z,3.30
2023-06-29T21:40:35.428Z,3.50
2023-06-29T21:43:02.830Z,3.70
2023-06-29T21:45:30.443Z,3.28
2023-06-29T21:47:57.831Z,2.97
2023-06-29T21:50:25.480Z,3.38
2023-06-29T21:52:52.902Z,2.78
2023-06-29T21:55:20.515Z,2.80
2023-06-29T21:57:47.955Z,3.78
2023-06-29T22:00:16.451Z,3.38
2023-06-29T22:02:44.824Z,2.95
2023-06-29T22:05:13.674Z,3.00
2023-06-29T22:07:41.713Z,3.08
2023-06-29T22:10:09.864Z,3.50
2023-06-29T22:12:42.395Z,3.40
2023-06-29T22:15:10.713Z,3.37
2023-06-29T22:17:38.504Z,2.70
2023-06-29T22:20:16.358Z,3.45
2023-06-29T22:22:44.333Z,3.22
2023-06-29T22:25:11.981Z,2.75
2023-06-29T22:27:39.651Z,3.83
2023-06-29T22:30:07.369Z,3.17
2023-06-29T22:32:35.063Z,2.78
2023-06-29T22:35:02.576Z,3.20
2023-06-29T22:37:30.234Z,3.63
2023-06-29T22:39:57.969Z,3.25
2023-06-29T22:42:25.654Z,3.70
2023-06-29T22:44:52.957Z,3.47
2023-06-29T22:47:20.632Z,3.15
2023-06-29T22:49:48.008Z,3.22
2023-06-29T22:52:21.081Z,3.78
2023-06-29T22:54:50.140Z,3.20
2023-06-29T22:57:21.860Z,3.25
2023-06-29T22:59:53.889Z,3.55
2023-06-29T23:02:22.130Z,3.57
2023-06-29T23:04:49.888Z,3.22
2023-06-29T23:07:19.299Z,3.08
2023-06-29T23:09:47.118Z,4.47
2023-06-29T23:12:14.942Z,3.78
2023-06-29T23:14:42.768Z,3.47
2023-06-29T23:17:10.469Z,3.58
2023-06-29T23:19:37.813Z,3.72
2023-06-29T23:22:08.441Z,3.83
2023-06-29T23:24:35.945Z,4.28
2023-06-29T23:27:03.565Z,3.92
2023-06-29T23:29:31.652Z,3.85
2023-06-29T23:31:59.292Z,3.88
2023-06-29T23:34:26.724Z,3.58
2023-06-29T23:36:54.548Z,3.53
2023-06-29T23:39:21.950Z,4.32
2023-06-29T23:41:49.538Z,3.70
2023-06-29T23:44:17.040Z,3.42
2023-06-29T23:46:45.768Z,3.55
2023-06-29T23:49:13.996Z,3.22
2023-06-29T23:51:43.129Z,3.38
2023-06-29T23:54:11.191Z,3.30
2023-06-29T23:56:39.636Z,3.30
2023-06-29T23:59:07.591Z,3.50
